createdAt,value
2019-03-24T00:00:01.180Z,8.02
2019-03-24T00:02:29.147Z,7.99
2019-03-24T00:04:56.904Z,8.13
2019-03-24T00:07:24.756Z,8.12
2019-03-24T00:09:52.442Z,7.99
2019-03-24T00:12:20.528Z,7.91
2019-03-24T00:14:48.262Z,7.98
2019-03-24T00:17:15.859Z,7.97
2019-03-24T00:19:43.913Z,7.90
2019-03-24T00:22:11.630Z,7.83
2019-03-24T00:24:39.327Z,7.75
2019-03-24T00:27:07.193Z,7.77
2019-03-24T00:29:34.842Z,7.74
2019-03-24T00:32:02.607Z,7.71
2019-03-24T00:34:30.341Z,7.65
2019-03-24T00:36:58.348Z,7.74
2019-03-24T00:39:26.287Z,7.62
2019-03-24T00:41:54.019Z,7.50
2019-03-24T00:44:21.790Z,7.49
2019-03-24T00:46:49.580Z,7.46
2019-03-24T00:49:17.389Z,7.49
2019-03-24T00:51:45.104Z,7.45
2019-03-24T00:54:13.225Z,7.40
2019-03-24T00:56:40.963Z,7.37
2019-03-24T00:59:08.797Z,7.40
2019-03-24T01:01:36.445Z,7.35
2019-03-24T01:04:04.362Z,7.33
2019-03-24T01:06:32.101Z,7.31
2019-03-24T01:08:59.931Z,7.23
2019-03-24T01:11:27.550Z,7.20
2019-03-24T01:14:42.240Z,7.18
2019-03-24T01:20:37.026Z,7.10
2019-03-24T01:23:04.711Z,7.06
2019-03-24T01:32:00.788Z,7.25
2019-03-24T01:34:28.497Z,7.15
2019-03-24T01:37:07.361Z,7.21
2019-03-24T01:39:35.045Z,7.21
2019-03-24T01:54:19.741Z,7.06
2019-03-24T01:56:47.447Z,6.98
2019-03-24T01:59:55.755Z,6.92
2019-03-24T02:11:37.865Z,6.95
2019-03-24T02:14:05.655Z,6.89
2019-03-24T02:17:13.935Z,6.84
2019-03-24T02:23:27.997Z,6.90
2019-03-24T02:29:28.705Z,6.78
2019-03-24T02:35:43.176Z,6.82
2019-03-24T02:41:43.686Z,6.84
2019-03-24T02:48:17.729Z,6.80
2019-03-24T02:54:05.988Z,6.65
2019-03-24T02:59:47.325Z,6.44
2019-03-24T03:02:15.447Z,6.76
2019-03-24T03:04:43.244Z,6.91
2019-03-24T03:16:38.286Z,6.67
2019-03-24T03:25:52.459Z,6.76
2019-03-24T03:28:20.211Z,6.83
2019-03-24T03:30:55.359Z,6.79
2019-03-24T03:33:34.898Z,6.85
2019-03-24T03:45:40.057Z,6.81
2019-03-24T03:48:07.745Z,6.95
2019-03-24T03:51:15.949Z,6.82
2019-03-24T03:53:44.000Z,6.79
2019-03-24T03:56:52.293Z,6.78
2019-03-24T04:06:07.126Z,6.79
2019-03-24T04:11:54.909Z,6.77
2019-03-24T04:15:03.189Z,6.94
2019-03-24T04:18:02.597Z,6.86
2019-03-24T04:27:18.223Z,6.72
2019-03-24T04:30:05.157Z,6.68
2019-03-24T04:32:33.253Z,6.61
2019-03-24T04:35:20.039Z,6.70
2019-03-24T04:38:07.402Z,6.66
2019-03-24T04:40:54.366Z,6.66
2019-03-24T04:43:41.711Z,6.66
2019-03-24T04:49:30.075Z,6.74
2019-03-24T05:04:02.939Z,6.56
2019-03-24T05:12:34.197Z,6.55
2019-03-24T05:15:13.508Z,6.57
2019-03-24T05:18:12.727Z,6.51
2019-03-24T05:24:26.817Z,6.50
2019-03-24T05:35:48.010Z,6.44
2019-03-24T05:45:03.848Z,6.75
2019-03-24T05:53:12.197Z,7.28
2019-03-24T05:55:40.356Z,7.45
2019-03-24T05:58:08.408Z,7.56
2019-03-24T06:04:16.302Z,7.81
2019-03-24T06:13:51.440Z,8.23
2019-03-24T06:16:19.128Z,8.33
2019-03-24T06:21:48.734Z,8.49
2019-03-24T06:28:03.060Z,8.66
2019-03-24T06:33:51.535Z,8.85
2019-03-24T06:36:19.308Z,9.00
2019-03-24T06:38:58.730Z,8.99
2019-03-24T06:47:57.642Z,9.40
2019-03-24T06:50:43.903Z,9.42
2019-03-24T06:53:11.666Z,9.51
2019-03-24T07:02:01.334Z,10.01
2019-03-24T07:07:09.508Z,10.25
2019-03-24T07:09:56.446Z,10.37
2019-03-24T07:12:24.199Z,10.67
2019-03-24T07:14:51.880Z,10.91
2019-03-24T07:17:19.526Z,11.05
2019-03-24T07:25:49.787Z,11.63
2019-03-24T07:28:17.963Z,11.87
2019-03-24T07:46:02.598Z,16.43
2019-03-24T07:48:31.236Z,17.03
2019-03-24T07:50:58.872Z,17.08
2019-03-24T07:54:07.156Z,16.89
2019-03-24T07:56:34.886Z,16.85
2019-03-24T07:59:02.777Z,16.51
2019-03-24T08:01:42.590Z,16.43
2019-03-24T08:07:22.996Z,16.89
2019-03-24T08:09:50.712Z,17.01
2019-03-24T08:12:37.776Z,17.58
2019-03-24T08:15:16.192Z,17.57
2019-03-24T08:17:56.557Z,18.08
2019-03-24T08:20:24.655Z,18.84
2019-03-24T08:22:52.389Z,19.11
2019-03-24T08:25:20.203Z,18.69
2019-03-24T08:27:48.037Z,18.97
2019-03-24T08:30:28.807Z,19.59
2019-03-24T08:32:56.177Z,20.40
2019-03-24T08:35:23.969Z,20.80
2019-03-24T08:37:52.266Z,21.34
2019-03-24T08:40:20.149Z,22.40
2019-03-24T08:42:47.924Z,23.00
2019-03-24T08:45:25.041Z,24.54
2019-03-24T08:47:53.077Z,26.24
2019-03-24T08:50:20.926Z,27.47
2019-03-24T08:52:48.812Z,27.66
2019-03-24T08:55:16.645Z,28.17
2019-03-24T08:57:45.053Z,27.84
2019-03-24T09:00:13.155Z,26.53
2019-03-24T09:02:41.104Z,26.06
2019-03-24T09:05:08.831Z,26.19
2019-03-24T09:07:36.682Z,26.51
2019-03-24T09:10:05.087Z,27.61
2019-03-24T09:12:32.930Z,28.13
2019-03-24T09:15:00.995Z,28.22
2019-03-24T09:17:28.856Z,28.21
2019-03-24T09:19:56.788Z,28.72
2019-03-24T09:22:24.578Z,29.24
2019-03-24T09:24:52.768Z,28.81
2019-03-24T09:27:20.960Z,28.35
2019-03-24T09:29:48.712Z,27.86
2019-03-24T09:32:16.369Z,26.69
2019-03-24T09:34:44.620Z,25.61
2019-03-24T09:37:12.438Z,24.42
2019-03-24T09:39:40.433Z,24.09
2019-03-24T09:42:08.191Z,23.64
2019-03-24T09:44:35.916Z,23.25
2019-03-24T09:47:03.655Z,22.49
2019-03-24T09:49:32.156Z,21.95
2019-03-24T09:51:59.996Z,21.07
2019-03-24T09:54:27.869Z,20.46
2019-03-24T09:56:55.671Z,19.63
2019-03-24T09:59:23.453Z,19.71
2019-03-24T10:01:51.137Z,19.67
2019-03-24T10:04:18.838Z,19.77
2019-03-24T10:06:46.607Z,19.84
2019-03-24T10:09:14.407Z,20.40
2019-03-24T10:11:42.131Z,20.60
2019-03-24T10:14:11.786Z,20.48
2019-03-24T10:16:39.481Z,20.49
2019-03-24T10:19:14.010Z,20.11
2019-03-24T10:21:36.793Z,19.86
2019-03-24T10:24:04.503Z,19.62
2019-03-24T10:26:32.724Z,18.82
2019-03-24T10:29:01.530Z,19.01
2019-03-24T10:31:29.643Z,19.09
2019-03-24T10:33:57.549Z,19.04
2019-03-24T10:36:25.538Z,19.14
2019-03-24T10:38:53.338Z,19.64
2019-03-24T10:41:21.091Z,20.10
2019-03-24T10:43:48.975Z,20.49
2019-03-24T10:46:16.807Z,20.76
2019-03-24T10:48:44.535Z,21.01
2019-03-24T10:51:12.366Z,21.01
2019-03-24T10:53:40.178Z,20.88
2019-03-24T10:56:07.924Z,20.76
2019-03-24T10:58:36.068Z,20.44
2019-03-24T11:01:04.273Z,20.19
2019-03-24T11:03:32.040Z,19.52
2019-03-24T11:05:59.731Z,19.22
2019-03-24T11:08:27.869Z,19.24
2019-03-24T11:10:55.522Z,18.91
2019-03-24T11:13:23.244Z,18.64
2019-03-24T11:15:51.348Z,18.32
2019-03-24T11:18:19.078Z,18.24
2019-03-24T11:20:46.992Z,18.25
2019-03-24T11:23:14.770Z,18.46
2019-03-24T11:25:42.463Z,18.66
2019-03-24T11:28:10.242Z,18.64
2019-03-24T11:30:38.031Z,18.47
2019-03-24T11:33:05.732Z,18.38
2019-03-24T11:35:33.470Z,18.06
2019-03-24T11:38:01.319Z,17.74
2019-03-24T11:40:29.066Z,17.95
2019-03-24T11:42:56.901Z,18.01
2019-03-24T11:45:24.923Z,18.20
2019-03-24T11:47:52.732Z,18.17
2019-03-24T11:50:20.761Z,18.20
2019-03-24T11:52:48.576Z,18.09
2019-03-24T11:55:16.449Z,17.99
2019-03-24T11:57:44.422Z,18.08
2019-03-24T12:00:13.077Z,17.99
2019-03-24T12:02:41.164Z,17.89
2019-03-24T12:05:09.371Z,17.81
2019-03-24T12:07:38.918Z,17.83
2019-03-24T12:10:08.619Z,17.90
2019-03-24T12:12:36.690Z,18.02
2019-03-24T12:15:05.592Z,17.94
2019-03-24T12:17:33.416Z,17.46
2019-03-24T12:20:01.241Z,17.38
2019-03-24T12:22:29.291Z,17.74
2019-03-24T12:24:57.069Z,18.33
2019-03-24T12:27:25.181Z,18.58
2019-03-24T12:29:52.904Z,18.74
2019-03-24T12:32:21.133Z,18.90
2019-03-24T12:34:48.868Z,19.02
2019-03-24T12:37:17.010Z,18.52
2019-03-24T12:39:44.652Z,18.04
2019-03-24T12:42:12.467Z,18.25
2019-03-24T12:44:40.694Z,18.45
2019-03-24T12:47:08.411Z,18.27
2019-03-24T12:49:36.201Z,18.05
2019-03-24T12:52:03.990Z,17.95
2019-03-24T12:54:31.782Z,17.87
2019-03-24T12:56:59.620Z,17.88
2019-03-24T12:59:27.373Z,17.69
2019-03-24T13:01:55.078Z,17.49
2019-03-24T13:04:22.813Z,17.44
2019-03-24T13:06:50.512Z,17.34
2019-03-24T13:09:18.251Z,17.17
2019-03-24T13:11:46.018Z,16.84
2019-03-24T13:14:14.090Z,16.63
2019-03-24T13:16:42.191Z,16.54
2019-03-24T13:19:10.425Z,16.40
2019-03-24T13:21:38.125Z,16.38
2019-03-24T13:24:05.890Z,16.27
2019-03-24T13:26:33.550Z,16.20
2019-03-24T13:29:01.326Z,16.21
2019-03-24T13:31:29.769Z,16.35
2019-03-24T13:33:57.530Z,16.63
2019-03-24T13:36:25.280Z,16.85
2019-03-24T13:38:53.021Z,17.14
2019-03-24T13:41:21.258Z,17.30
2019-03-24T13:43:49.167Z,17.51
2019-03-24T13:46:16.892Z,17.93
2019-03-24T13:48:44.636Z,18.15
2019-03-24T13:51:12.391Z,18.08
2019-03-24T13:53:40.126Z,17.95
2019-03-24T13:56:07.943Z,17.54
2019-03-24T13:58:35.683Z,17.34
2019-03-24T14:01:04.846Z,17.23
2019-03-24T14:03:32.634Z,17.01
2019-03-24T14:06:00.291Z,16.82
2019-03-24T14:08:27.900Z,16.63
2019-03-24T14:10:55.673Z,16.27
2019-03-24T14:13:23.398Z,16.07
2019-03-24T14:15:51.899Z,16.02
2019-03-24T14:18:20.265Z,16.07
2019-03-24T14:20:48.164Z,16.10
2019-03-24T14:23:16.336Z,15.91
2019-03-24T14:25:44.121Z,15.64
2019-03-24T14:28:12.307Z,15.36
2019-03-24T14:31:21.336Z,15.20
2019-03-24T14:36:47.116Z,14.99
2019-03-24T14:39:14.876Z,14.87
2019-03-24T14:41:42.615Z,14.78
2019-03-24T14:44:10.406Z,14.93
2019-03-24T14:46:38.116Z,15.13
2019-03-24T14:52:40.395Z,15.46
2019-03-24T14:55:08.548Z,15.65
2019-03-24T14:57:36.817Z,15.72
2019-03-24T15:00:46.243Z,15.79
2019-03-24T15:05:53.379Z,15.79
2019-03-24T15:11:31.865Z,15.76
2019-03-24T15:13:59.652Z,15.73
2019-03-24T15:16:27.805Z,15.67
2019-03-24T15:18:55.683Z,15.57
2019-03-24T15:21:23.741Z,15.45
2019-03-24T15:23:51.565Z,15.25
2019-03-24T15:26:19.557Z,15.17
2019-03-24T15:29:06.491Z,15.07
2019-03-24T15:32:06.024Z,15.02
2019-03-24T15:34:33.815Z,15.09
2019-03-24T15:37:01.819Z,15.19
2019-03-24T15:39:29.755Z,15.22
2019-03-24T15:41:57.525Z,15.21
2019-03-24T15:44:25.258Z,15.27
2019-03-24T15:47:12.232Z,15.16
2019-03-24T15:49:39.950Z,15.01
2019-03-24T15:52:07.795Z,14.94
2019-03-24T15:54:35.880Z,14.90
2019-03-24T15:57:04.004Z,14.90
2019-03-24T15:59:50.965Z,14.91
2019-03-24T16:02:18.874Z,14.91
2019-03-24T16:04:47.008Z,14.85
2019-03-24T16:07:14.800Z,14.79
2019-03-24T16:09:42.534Z,14.68
2019-03-24T16:12:10.324Z,14.61
2019-03-24T16:14:38.071Z,14.43
2019-03-24T16:17:05.831Z,14.35
2019-03-24T16:19:33.612Z,14.27
2019-03-24T16:22:01.678Z,14.24
2019-03-24T16:24:30.176Z,14.30
2019-03-24T16:27:09.705Z,14.21
2019-03-24T16:29:37.334Z,14.22
2019-03-24T16:35:51.100Z,14.02
2019-03-24T16:40:57.727Z,13.92
2019-03-24T16:43:37.381Z,13.84
2019-03-24T16:46:05.174Z,13.82
2019-03-24T16:48:37.054Z,13.76
2019-03-24T16:51:09.358Z,13.65
2019-03-24T16:53:37.103Z,13.51
2019-03-24T16:56:04.856Z,13.49
2019-03-24T16:58:32.652Z,13.40
2019-03-24T17:01:00.401Z,13.42
2019-03-24T17:03:28.130Z,13.31
2019-03-24T17:06:15.007Z,13.20
2019-03-24T17:08:42.779Z,13.05
2019-03-24T17:11:11.642Z,12.90
2019-03-24T17:13:39.420Z,12.74
2019-03-24T17:16:47.650Z,12.71
2019-03-24T17:19:15.407Z,12.67
2019-03-24T17:21:49.904Z,12.56
2019-03-24T17:24:23.190Z,12.43
2019-03-24T17:27:10.025Z,12.25
2019-03-24T17:29:37.824Z,12.15
2019-03-24T17:32:24.638Z,12.09
2019-03-24T17:38:07.540Z,11.72
2019-03-24T17:40:38.706Z,11.54
2019-03-24T17:43:15.282Z,11.32
2019-03-24T17:49:17.546Z,10.96
2019-03-24T17:51:45.282Z,10.73
2019-03-24T17:54:13.020Z,10.51
2019-03-24T17:56:40.819Z,10.27
2019-03-24T17:59:08.894Z,10.11
2019-03-24T18:01:36.629Z,9.94
2019-03-24T18:04:04.841Z,9.79
2019-03-24T18:06:32.603Z,9.76
2019-03-24T18:09:00.345Z,9.85
2019-03-24T18:11:28.121Z,9.87
2019-03-24T18:13:55.881Z,9.83
2019-03-24T18:16:24.273Z,9.83
2019-03-24T18:18:51.923Z,9.72
2019-03-24T18:21:38.931Z,9.60
2019-03-24T18:30:00.871Z,9.40
2019-03-24T18:32:28.643Z,9.37
2019-03-24T18:34:57.165Z,9.28
2019-03-24T18:37:24.869Z,9.23
2019-03-24T18:39:52.571Z,9.25
2019-03-24T18:42:20.716Z,9.31
2019-03-24T18:44:48.372Z,9.25
2019-03-24T18:47:17.995Z,9.21
2019-03-24T18:49:46.200Z,9.24
2019-03-24T18:52:22.268Z,9.24
2019-03-24T18:58:05.438Z,9.47
2019-03-24T19:00:33.179Z,9.37
2019-03-24T19:03:00.951Z,9.26
2019-03-24T19:05:28.853Z,9.16
2019-03-24T19:07:56.593Z,9.15
2019-03-24T19:10:24.369Z,9.07
2019-03-24T19:19:09.121Z,8.90
2019-03-24T19:21:36.852Z,8.97
2019-03-24T19:24:04.625Z,8.89
2019-03-24T19:26:32.366Z,8.78
2019-03-24T19:29:19.668Z,8.89
2019-03-24T19:34:49.913Z,9.01
2019-03-24T19:37:36.830Z,8.83
2019-03-24T19:45:50.057Z,8.70
2019-03-24T19:48:17.990Z,8.67
2019-03-24T19:50:45.644Z,8.58
2019-03-24T19:53:13.839Z,8.51
2019-03-24T19:58:55.963Z,8.55
2019-03-24T20:01:23.932Z,8.54
2019-03-24T20:03:51.713Z,8.38
2019-03-24T20:06:19.538Z,8.25
2019-03-24T20:08:47.184Z,8.45
2019-03-24T20:11:34.482Z,8.42
2019-03-24T20:14:02.218Z,8.41
2019-03-24T20:16:30.038Z,8.46
2019-03-24T20:19:17.021Z,8.50
2019-03-24T20:21:56.799Z,8.30
2019-03-24T20:24:24.586Z,8.18
2019-03-24T20:26:52.365Z,8.03
2019-03-24T20:32:01.056Z,8.04
2019-03-24T20:40:43.227Z,7.66
2019-03-24T20:43:11.084Z,7.72
2019-03-24T20:45:57.883Z,7.61
2019-03-24T20:48:38.033Z,7.50
2019-03-24T20:51:18.007Z,7.35
2019-03-24T20:53:45.789Z,7.25
2019-03-24T20:56:13.539Z,7.31
2019-03-24T20:58:41.491Z,7.17
2019-03-24T21:01:09.247Z,7.17
2019-03-24T21:03:37.348Z,7.19
2019-03-24T21:06:05.005Z,7.13
2019-03-24T21:08:32.768Z,7.07
2019-03-24T21:14:00.230Z,7.03
2019-03-24T21:16:28.088Z,6.90
2019-03-24T21:18:55.845Z,6.84
2019-03-24T21:21:42.697Z,6.74
2019-03-24T21:24:29.641Z,6.84
2019-03-24T21:26:57.384Z,6.75
2019-03-24T21:29:25.145Z,6.57
2019-03-24T21:31:55.144Z,6.45
2019-03-24T21:34:51.278Z,6.35
2019-03-24T21:37:18.927Z,6.28
2019-03-24T21:40:18.237Z,6.33
2019-03-24T21:42:45.935Z,6.29
2019-03-24T21:45:54.292Z,6.18
2019-03-24T21:48:41.197Z,6.12
2019-03-24T21:51:08.871Z,6.01
2019-03-24T21:53:40.922Z,5.92
2019-03-24T21:56:16.037Z,5.78
2019-03-24T21:58:43.779Z,5.80
2019-03-24T22:01:11.878Z,5.95
2019-03-24T22:03:58.822Z,6.00
2019-03-24T22:06:26.515Z,5.90
2019-03-24T22:09:12.573Z,5.90
2019-03-24T22:11:40.312Z,5.97
2019-03-24T22:14:08.282Z,5.91
2019-03-24T22:16:36.337Z,5.82
2019-03-24T22:19:04.101Z,5.75
2019-03-24T22:21:32.212Z,5.66
2019-03-24T22:23:59.978Z,5.57
2019-03-24T22:26:28.036Z,5.51
2019-03-24T22:28:56.119Z,5.36
2019-03-24T22:34:25.457Z,5.38
2019-03-24T22:36:53.214Z,5.41
2019-03-24T22:39:20.962Z,5.45
2019-03-24T22:41:48.723Z,5.45
2019-03-24T22:44:35.658Z,5.36
2019-03-24T22:47:03.429Z,5.24
2019-03-24T22:49:50.299Z,5.16
2019-03-24T22:52:18.020Z,5.17
2019-03-24T23:04:02.389Z,4.87
2019-03-24T23:06:30.115Z,4.79
2019-03-24T23:09:17.387Z,4.83
2019-03-24T23:12:04.447Z,4.86
2019-03-24T23:18:14.911Z,5.01
2019-03-24T23:24:16.977Z,4.92
2019-03-24T23:26:46.594Z,4.98
2019-03-24T23:29:14.395Z,4.98
2019-03-24T23:32:01.261Z,4.90
2019-03-24T23:34:28.958Z,4.91
2019-03-24T23:37:15.915Z,5.00
2019-03-24T23:45:24.354Z,4.77
2019-03-24T23:47:52.052Z,4.70
2019-03-24T23:50:19.788Z,4.76
2019-03-24T23:52:47.424Z,4.73
2019-03-24T23:55:15.152Z,4.68
2019-03-24T23:57:42.745Z,4.71
